Aviation Digital Data Service (ADDS)

Output produced by METARs form (2028 UTC 20 August 2019)
found at http://www.aviationweather.gov/metar/data/
 
METAR text: HEBL 202000Z 36003KT CAVOK 35/12 Q1010 NOSIG
Conditions at: HEBL (ABU SIMBEL (RUIN, EG) observed 2000 UTC 20 August 2019
Temperature: 35.0°C (95°F)
Dewpoint: 12.0°C (54°F) [RH = 25%]
Pressure (altimeter): 29.82 inches Hg (1010.0 mb)
Winds: from the N (360 degrees) at 3 MPH (3 knots; 1.5 m/s)
Visibility: 6 or more miles (10+ km)
Ceiling: ceiling and visibility are OK
Clouds: unknown
Weather: no significant weather observed at this time

METAR text: HEBL 201900Z 02002KT CAVOK 36/20 Q1009 NOSIG
Conditions at: HEBL (ABU SIMBEL (RUIN, EG) observed 1900 UTC 20 August 2019
Temperature: 36.0°C (97°F)
Dewpoint: 20.0°C (68°F) [RH = 39%]
Pressure (altimeter): 29.79 inches Hg (1009.0 mb)
Winds: from the NNE (20 degrees) at 2 MPH (2 knots; 1.0 m/s)
Visibility: 6 or more miles (10+ km)
Ceiling: ceiling and visibility are OK
Clouds: unknown
Weather: no significant weather observed at this time

METAR text: HEBL 201800Z 00000KT CAVOK 37/12 Q1009 NOSIG
Conditions at: HEBL (ABU SIMBEL (RUIN, EG) observed 1800 UTC 20 August 2019
Temperature: 37.0°C (99°F)
Dewpoint: 12.0°C (54°F) [RH = 22%]
Pressure (altimeter): 29.79 inches Hg (1009.0 mb)
Winds: calm
Visibility: 6 or more miles (10+ km)
Ceiling: ceiling and visibility are OK
Clouds: unknown
Weather: no significant weather observed at this time

METAR text: HEBL 201700Z 10004KT CAVOK 37/15 Q1009 NOSIG
Conditions at: HEBL (ABU SIMBEL (RUIN, EG) observed 1700 UTC 20 August 2019
Temperature: 37.0°C (99°F)
Dewpoint: 15.0°C (59°F) [RH = 27%]
Pressure (altimeter): 29.79 inches Hg (1009.0 mb)
Winds: from the E (100 degrees) at 5 MPH (4 knots; 2.1 m/s)
Visibility: 6 or more miles (10+ km)
Ceiling: ceiling and visibility are OK
Clouds: unknown
Weather: no significant weather observed at this time

METAR text: HEBL 201600Z 10006KT CAVOK 38/13 Q1008 NOSIG
Conditions at: HEBL (ABU SIMBEL (RUIN, EG) observed 1600 UTC 20 August 2019
Temperature: 38.0°C (100°F)
Dewpoint: 13.0°C (55°F) [RH = 23%]
Pressure (altimeter): 29.76 inches Hg (1008.0 mb)
Winds: from the E (100 degrees) at 7 MPH (6 knots; 3.1 m/s)
Visibility: 6 or more miles (10+ km)
Ceiling: ceiling and visibility are OK
Clouds: unknown
Weather: no significant weather observed at this time

METAR text: HEBL 201500Z 09006KT CAVOK 39/14 Q1008 NOSIG
Conditions at: HEBL (ABU SIMBEL (RUIN, EG) observed 1500 UTC 20 August 2019
Temperature: 39.0°C (102°F)
Dewpoint: 14.0°C (57°F) [RH = 23%]
Pressure (altimeter): 29.76 inches Hg (1008.0 mb)
Winds: from the E (90 degrees) at 7 MPH (6 knots; 3.1 m/s)
Visibility: 6 or more miles (10+ km)
Ceiling: ceiling and visibility are OK
Clouds: unknown
Weather: no significant weather observed at this time

METAR text: HEBL 201400Z 10005KT CAVOK 41/13 Q1009 NOSIG
Conditions at: HEBL (ABU SIMBEL (RUIN, EG) observed 1400 UTC 20 August 2019
Temperature: 41.0°C (106°F)
Dewpoint: 13.0°C (55°F) [RH = 19%]
Pressure (altimeter): 29.79 inches Hg (1009.0 mb)
Winds: from the E (100 degrees) at 6 MPH (5 knots; 2.6 m/s)
Visibility: 6 or more miles (10+ km)
Ceiling: ceiling and visibility are OK
Clouds: unknown
Weather: no significant weather observed at this time

METAR text: HEBL 201300Z 08007KT CAVOK 40/12 Q1009 NOSIG
Conditions at: HEBL (ABU SIMBEL (RUIN, EG) observed 1300 UTC 20 August 2019
Temperature: 40.0°C (104°F)
Dewpoint: 12.0°C (54°F) [RH = 19%]
Pressure (altimeter): 29.79 inches Hg (1009.0 mb)
Winds: from the E (80 degrees) at 8 MPH (7 knots; 3.6 m/s)
Visibility: 6 or more miles (10+ km)
Ceiling: ceiling and visibility are OK
Clouds: unknown
Weather: no significant weather observed at this time

METAR text: HEBL 201200Z 07007KT CAVOK 40/12 Q1009 NOSIG
Conditions at: HEBL (ABU SIMBEL (RUIN, EG) observed 1200 UTC 20 August 2019
Temperature: 40.0°C (104°F)
Dewpoint: 12.0°C (54°F) [RH = 19%]
Pressure (altimeter): 29.79 inches Hg (1009.0 mb)
Winds: from the ENE (70 degrees) at 8 MPH (7 knots; 3.6 m/s)
Visibility: 6 or more miles (10+ km)
Ceiling: ceiling and visibility are OK
Clouds: unknown
Weather: no significant weather observed at this time

METAR text: HEBL 201100Z 07008KT CAVOK 39/13 Q1010 NOSIG
Conditions at: HEBL (ABU SIMBEL (RUIN, EG) observed 1100 UTC 20 August 2019
Temperature: 39.0°C (102°F)
Dewpoint: 13.0°C (55°F) [RH = 21%]
Pressure (altimeter): 29.82 inches Hg (1010.0 mb)
Winds: from the ENE (70 degrees) at 9 MPH (8 knots; 4.1 m/s)
Visibility: 6 or more miles (10+ km)
Ceiling: ceiling and visibility are OK
Clouds: unknown
Weather: no significant weather observed at this time

METAR text: HEBL 201000Z 05008KT CAVOK 39/14 Q1010 NOSIG
Conditions at: HEBL (ABU SIMBEL (RUIN, EG) observed 1000 UTC 20 August 2019
Temperature: 39.0°C (102°F)
Dewpoint: 14.0°C (57°F) [RH = 23%]
Pressure (altimeter): 29.82 inches Hg (1010.0 mb)
Winds: from the NE (50 degrees) at 9 MPH (8 knots; 4.1 m/s)
Visibility: 6 or more miles (10+ km)
Ceiling: ceiling and visibility are OK
Clouds: unknown
Weather: no significant weather observed at this time

METAR text: HEBL 200900Z 06008KT CAVOK 37/15 Q1011 NOSIG
Conditions at: HEBL (ABU SIMBEL (RUIN, EG) observed 0900 UTC 20 August 2019
Temperature: 37.0°C (99°F)
Dewpoint: 15.0°C (59°F) [RH = 27%]
Pressure (altimeter): 29.85 inches Hg (1011.0 mb)
Winds: from the ENE (60 degrees) at 9 MPH (8 knots; 4.1 m/s)
Visibility: 6 or more miles (10+ km)
Ceiling: ceiling and visibility are OK
Clouds: unknown
Weather: no significant weather observed at this time

METAR text: HEBL 200800Z 06008KT CAVOK 36/14 Q1011 NOSIG
Conditions at: HEBL (ABU SIMBEL (RUIN, EG) observed 0800 UTC 20 August 2019
Temperature: 36.0°C (97°F)
Dewpoint: 14.0°C (57°F) [RH = 27%]
Pressure (altimeter): 29.85 inches Hg (1011.0 mb)
Winds: from the ENE (60 degrees) at 9 MPH (8 knots; 4.1 m/s)
Visibility: 6 or more miles (10+ km)
Ceiling: ceiling and visibility are OK
Clouds: unknown
Weather: no significant weather observed at this time

METAR text: HEBL 200700Z 08005KT CAVOK 35/15 Q1011 NOSIG
Conditions at: HEBL (ABU SIMBEL (RUIN, EG) observed 0700 UTC 20 August 2019
Temperature: 35.0°C (95°F)
Dewpoint: 15.0°C (59°F) [RH = 30%]
Pressure (altimeter): 29.85 inches Hg (1011.0 mb)
Winds: from the E (80 degrees) at 6 MPH (5 knots; 2.6 m/s)
Visibility: 6 or more miles (10+ km)
Ceiling: ceiling and visibility are OK
Clouds: unknown
Weather: no significant weather observed at this time

METAR text: HEBL 200600Z 08008KT CAVOK 34/18 Q1010 NOSIG
Conditions at: HEBL (ABU SIMBEL (RUIN, EG) observed 0600 UTC 20 August 2019
Temperature: 34.0°C (93°F)
Dewpoint: 18.0°C (64°F) [RH = 39%]
Pressure (altimeter): 29.82 inches Hg (1010.0 mb)
Winds: from the E (80 degrees) at 9 MPH (8 knots; 4.1 m/s)
Visibility: 6 or more miles (10+ km)
Ceiling: ceiling and visibility are OK
Clouds: unknown
Weather: no significant weather observed at this time

METAR text: HEBL 200500Z 07009KT CAVOK 33/18 Q1010 NOSIG
Conditions at: HEBL (ABU SIMBEL (RUIN, EG) observed 0500 UTC 20 August 2019
Temperature: 33.0°C (91°F)
Dewpoint: 18.0°C (64°F) [RH = 41%]
Pressure (altimeter): 29.82 inches Hg (1010.0 mb)
Winds: from the ENE (70 degrees) at 10 MPH (9 knots; 4.6 m/s)
Visibility: 6 or more miles (10+ km)
Ceiling: ceiling and visibility are OK
Clouds: unknown
Weather: no significant weather observed at this time

METAR text: HEBL 200400Z 06009KT CAVOK 32/16 Q1010 NOSIG
Conditions at: HEBL (ABU SIMBEL (RUIN, EG) observed 0400 UTC 20 August 2019
Temperature: 32.0°C (90°F)
Dewpoint: 16.0°C (61°F) [RH = 38%]
Pressure (altimeter): 29.82 inches Hg (1010.0 mb)
Winds: from the ENE (60 degrees) at 10 MPH (9 knots; 4.6 m/s)
Visibility: 6 or more miles (10+ km)
Ceiling: ceiling and visibility are OK
Clouds: unknown
Weather: no significant weather observed at this time

METAR text: HEBL 200300Z 06010KT CAVOK 32/15 Q1009 NOSIG
Conditions at: HEBL (ABU SIMBEL (RUIN, EG) observed 0300 UTC 20 August 2019
Temperature: 32.0°C (90°F)
Dewpoint: 15.0°C (59°F) [RH = 36%]
Pressure (altimeter): 29.79 inches Hg (1009.0 mb)
Winds: from the ENE (60 degrees) at 12 MPH (10 knots; 5.1 m/s)
Visibility: 6 or more miles (10+ km)
Ceiling: ceiling and visibility are OK
Clouds: unknown
Weather: no significant weather observed at this time

METAR text: HEBL 200200Z 06008KT CAVOK 32/19 Q1009 NOSIG
Conditions at: HEBL (ABU SIMBEL (RUIN, EG) observed 0200 UTC 20 August 2019
Temperature: 32.0°C (90°F)
Dewpoint: 19.0°C (66°F) [RH = 46%]
Pressure (altimeter): 29.79 inches Hg (1009.0 mb)
Winds: from the ENE (60 degrees) at 9 MPH (8 knots; 4.1 m/s)
Visibility: 6 or more miles (10+ km)
Ceiling: ceiling and visibility are OK
Clouds: unknown
Weather: no significant weather observed at this time

METAR text: HEBL 200100Z 07009KT CAVOK 33/18 Q1009 NOSIG
Conditions at: HEBL (ABU SIMBEL (RUIN, EG) observed 0100 UTC 20 August 2019
Temperature: 33.0°C (91°F)
Dewpoint: 18.0°C (64°F) [RH = 41%]
Pressure (altimeter): 29.79 inches Hg (1009.0 mb)
Winds: from the ENE (70 degrees) at 10 MPH (9 knots; 4.6 m/s)
Visibility: 6 or more miles (10+ km)
Ceiling: ceiling and visibility are OK
Clouds: unknown
Weather: no significant weather observed at this time

METAR text: HEBL 200000Z 06010KT CAVOK 34/15 Q1009 NOSIG
Conditions at: HEBL (ABU SIMBEL (RUIN, EG) observed 0000 UTC 20 August 2019
Temperature: 34.0°C (93°F)
Dewpoint: 15.0°C (59°F) [RH = 32%]
Pressure (altimeter): 29.79 inches Hg (1009.0 mb)
Winds: from the ENE (60 degrees) at 12 MPH (10 knots; 5.1 m/s)
Visibility: 6 or more miles (10+ km)
Ceiling: ceiling and visibility are OK
Clouds: unknown
Weather: no significant weather observed at this time

METAR text: HEBL 192300Z 06008KT CAVOK 34/15 Q1009 NOSIG
Conditions at: HEBL (ABU SIMBEL (RUIN, EG) observed 2300 UTC 19 August 2019
Temperature: 34.0°C (93°F)
Dewpoint: 15.0°C (59°F) [RH = 32%]
Pressure (altimeter): 29.79 inches Hg (1009.0 mb)
Winds: from the ENE (60 degrees) at 9 MPH (8 knots; 4.1 m/s)
Visibility: 6 or more miles (10+ km)
Ceiling: ceiling and visibility are OK
Clouds: unknown
Weather: no significant weather observed at this time

METAR text: HEBL 192200Z 05006KT CAVOK 34/15 Q1009 NOSIG
Conditions at: HEBL (ABU SIMBEL (RUIN, EG) observed 2200 UTC 19 August 2019
Temperature: 34.0°C (93°F)
Dewpoint: 15.0°C (59°F) [RH = 32%]
Pressure (altimeter): 29.79 inches Hg (1009.0 mb)
Winds: from the NE (50 degrees) at 7 MPH (6 knots; 3.1 m/s)
Visibility: 6 or more miles (10+ km)
Ceiling: ceiling and visibility are OK
Clouds: unknown
Weather: no significant weather observed at this time

METAR text: HEBL 192100Z 02006KT CAVOK 34/14 Q1010 NOSIG
Conditions at: HEBL (ABU SIMBEL (RUIN, EG) observed 2100 UTC 19 August 2019
Temperature: 34.0°C (93°F)
Dewpoint: 14.0°C (57°F) [RH = 30%]
Pressure (altimeter): 29.82 inches Hg (1010.0 mb)
Winds: from the NNE (20 degrees) at 7 MPH (6 knots; 3.1 m/s)
Visibility: 6 or more miles (10+ km)
Ceiling: ceiling and visibility are OK
Clouds: unknown
Weather: no significant weather observed at this time

METAR text: HEBL 192000Z 36004KT CAVOK 35/12 Q1010 NOSIG
Conditions at: HEBL (ABU SIMBEL (RUIN, EG) observed 2000 UTC 19 August 2019
Temperature: 35.0°C (95°F)
Dewpoint: 12.0°C (54°F) [RH = 25%]
Pressure (altimeter): 29.82 inches Hg (1010.0 mb)
Winds: from the N (360 degrees) at 5 MPH (4 knots; 2.1 m/s)
Visibility: 6 or more miles (10+ km)
Ceiling: ceiling and visibility are OK
Clouds: unknown
Weather: no significant weather observed at this time

METAR text: HEBL 191900Z 04002KT CAVOK 35/16 Q1010 NOSIG
Conditions at: HEBL (ABU SIMBEL (RUIN, EG) observed 1900 UTC 19 August 2019
Temperature: 35.0°C (95°F)
Dewpoint: 16.0°C (61°F) [RH = 32%]
Pressure (altimeter): 29.82 inches Hg (1010.0 mb)
Winds: from the NE (40 degrees) at 2 MPH (2 knots; 1.0 m/s)
Visibility: 6 or more miles (10+ km)
Ceiling: ceiling and visibility are OK
Clouds: unknown
Weather: no significant weather observed at this time

METAR text: HEBL 191800Z 06003KT CAVOK 36/18 Q1009 NOSIG
Conditions at: HEBL (ABU SIMBEL (RUIN, EG) observed 1800 UTC 19 August 2019
Temperature: 36.0°C (97°F)
Dewpoint: 18.0°C (64°F) [RH = 35%]
Pressure (altimeter): 29.79 inches Hg (1009.0 mb)
Winds: from the ENE (60 degrees) at 3 MPH (3 knots; 1.5 m/s)
Visibility: 6 or more miles (10+ km)
Ceiling: ceiling and visibility are OK
Clouds: unknown
Weather: no significant weather observed at this time

METAR text: HEBL 191600Z 08006KT CAVOK 37/18 Q1008 NOSIG
Conditions at: HEBL (ABU SIMBEL (RUIN, EG) observed 1600 UTC 19 August 2019
Temperature: 37.0°C (99°F)
Dewpoint: 18.0°C (64°F) [RH = 33%]
Pressure (altimeter): 29.76 inches Hg (1008.0 mb)
Winds: from the E (80 degrees) at 7 MPH (6 knots; 3.1 m/s)
Visibility: 6 or more miles (10+ km)
Ceiling: ceiling and visibility are OK
Clouds: unknown
Weather: no significant weather observed at this time

METAR text: HEBL 191500Z 09007KT CAVOK 39/13 Q1008 NOSIG
Conditions at: HEBL (ABU SIMBEL (RUIN, EG) observed 1500 UTC 19 August 2019
Temperature: 39.0°C (102°F)
Dewpoint: 13.0°C (55°F) [RH = 21%]
Pressure (altimeter): 29.76 inches Hg (1008.0 mb)
Winds: from the E (90 degrees) at 8 MPH (7 knots; 3.6 m/s)
Visibility: 6 or more miles (10+ km)
Ceiling: ceiling and visibility are OK
Clouds: unknown
Weather: no significant weather observed at this time

METAR text: HEBL 191400Z 08009KT CAVOK 39/14 Q1008 NOSIG
Conditions at: HEBL (ABU SIMBEL (RUIN, EG) observed 1400 UTC 19 August 2019
Temperature: 39.0°C (102°F)
Dewpoint: 14.0°C (57°F) [RH = 23%]
Pressure (altimeter): 29.76 inches Hg (1008.0 mb)
Winds: from the E (80 degrees) at 10 MPH (9 knots; 4.6 m/s)
Visibility: 6 or more miles (10+ km)
Ceiling: ceiling and visibility are OK
Clouds: unknown
Weather: no significant weather observed at this time

METAR text: HEBL 191300Z 08009KT 4000 DU NSC 39/14 Q1008 BECMG 6000
Conditions at: HEBL (ABU SIMBEL (RUIN, EG) observed 1300 UTC 19 August 2019
Temperature: 39.0°C (102°F)
Dewpoint: 14.0°C (57°F) [RH = 23%]
Pressure (altimeter): 29.76 inches Hg (1008.0 mb)
Winds: from the E (80 degrees) at 10 MPH (9 knots; 4.6 m/s)
Visibility: 2.49 miles (4.01 km)
Ceiling: at least 12,000 feet AGL
Clouds: sky clear below 12,000 feet AGL
Weather: DU  (widespread dust)

METAR text: HEBL 191200Z 08008KT CAVOK 39/14 Q1009 NOSIG
Conditions at: HEBL (ABU SIMBEL (RUIN, EG) observed 1200 UTC 19 August 2019
Temperature: 39.0°C (102°F)
Dewpoint: 14.0°C (57°F) [RH = 23%]
Pressure (altimeter): 29.79 inches Hg (1009.0 mb)
Winds: from the E (80 degrees) at 9 MPH (8 knots; 4.1 m/s)
Visibility: 6 or more miles (10+ km)
Ceiling: ceiling and visibility are OK
Clouds: unknown
Weather: no significant weather observed at this time

METAR text: HEBL 191100Z 08008KT 3000 DU NSC 39/14 Q1009 NOSIG
Conditions at: HEBL (ABU SIMBEL (RUIN, EG) observed 1100 UTC 19 August 2019
Temperature: 39.0°C (102°F)
Dewpoint: 14.0°C (57°F) [RH = 23%]
Pressure (altimeter): 29.79 inches Hg (1009.0 mb)
Winds: from the E (80 degrees) at 9 MPH (8 knots; 4.1 m/s)
Visibility: 1.86 miles (2.99 km)
Ceiling: at least 12,000 feet AGL
Clouds: sky clear below 12,000 feet AGL
Weather: DU  (widespread dust)

METAR text: HEBL 191000Z 04005KT 3000 DU NSC 39/13 Q1010 NOSIG
Conditions at: HEBL (ABU SIMBEL (RUIN, EG) observed 1000 UTC 19 August 2019
Temperature: 39.0°C (102°F)
Dewpoint: 13.0°C (55°F) [RH = 21%]
Pressure (altimeter): 29.82 inches Hg (1010.0 mb)
Winds: from the NE (40 degrees) at 6 MPH (5 knots; 2.6 m/s)
Visibility: 1.86 miles (2.99 km)
Ceiling: at least 12,000 feet AGL
Clouds: sky clear below 12,000 feet AGL
Weather: DU  (widespread dust)

METAR text: HEBL 190900Z 07004KT 1500 R33/1500 R15/1500 DU NSC 38/15 Q1010 NOSIG
Conditions at: HEBL (ABU SIMBEL (RUIN, EG) observed 0900 UTC 19 August 2019
Temperature: 38.0°C (100°F)
Dewpoint: 15.0°C (59°F) [RH = 26%]
Pressure (altimeter): 29.82 inches Hg (1010.0 mb)
Winds: from the ENE (70 degrees) at 5 MPH (4 knots; 2.1 m/s)
Visibility: 0.93 miles (1.50 km)
Ceiling: at least 12,000 feet AGL
Clouds: sky clear below 12,000 feet AGL
Weather: DU  (widespread dust)

Forecast for: HEBL (ABU SIMBEL (RUIN, EG)
Text: TAF HEBL 201700Z 2018/2124 04010KT CAVOK
Forecast period: 1800 UTC 20 August 2019 to 0000 UTC 22 August 2019
Forecast type: FROM: standard forecast or significant change
Winds: from the NE (40 degrees) at 12 MPH (10 knots; 5.1 m/s)
Visibility: 6 or more miles 10+ km)
Ceiling: unknown
Clouds: missing
Weather: NSW  (no significant weather)